createdAt,value
2023-11-27T00:00:51.997Z,23.14
2023-11-27T00:03:19.162Z,23.13
2023-11-27T00:05:46.328Z,23.16
2023-11-27T00:08:15.194Z,23.14
2023-11-27T00:10:43.048Z,23.18
2023-11-27T00:13:11.683Z,23.21
2023-11-27T00:15:38.837Z,23.03
2023-11-27T00:18:06.156Z,23.25
2023-11-27T00:20:33.359Z,23.22
2023-11-27T00:23:00.648Z,23.19
2023-11-27T00:25:27.786Z,23.19
2023-11-27T00:27:55.002Z,23.17
2023-11-27T00:30:23.499Z,23.18
2023-11-27T00:32:50.742Z,23.13
2023-11-27T00:35:17.905Z,23.10
2023-11-27T00:37:45.073Z,23.11
2023-11-27T00:40:12.409Z,23.11
2023-11-27T00:42:39.596Z,23.11
2023-11-27T00:45:07.777Z,23.09
2023-11-27T00:47:36.729Z,23.03
2023-11-27T00:50:04.708Z,22.99
2023-11-27T00:52:32.404Z,23.01
2023-11-27T00:54:59.697Z,23.01
2023-11-27T00:57:26.867Z,23.02
2023-11-27T00:59:54.095Z,23.01
2023-11-27T01:02:21.673Z,23.00
2023-11-27T01:04:50.609Z,23.03
2023-11-27T01:07:17.917Z,23.05
2023-11-27T01:09:45.082Z,23.06
2023-11-27T01:12:12.320Z,23.08
2023-11-27T01:14:39.447Z,23.09
2023-11-27T01:17:06.735Z,23.07
2023-11-27T01:19:35.334Z,23.04
2023-11-27T01:22:04.018Z,23.04
2023-11-27T01:24:31.198Z,23.02
2023-11-27T01:26:58.376Z,23.03
2023-11-27T01:29:25.991Z,22.99
2023-11-27T01:31:53.199Z,23.01
2023-11-27T01:34:20.432Z,22.99
2023-11-27T01:36:47.734Z,22.97
2023-11-27T01:39:16.376Z,22.97
2023-11-27T01:41:43.546Z,22.88
2023-11-27T01:44:10.675Z,22.80
2023-11-27T01:46:44.328Z,22.82
2023-11-27T01:49:11.789Z,22.80
2023-11-27T01:51:40.855Z,22.78
2023-11-27T01:54:08.199Z,22.84
2023-11-27T01:56:37.919Z,22.82
2023-11-27T01:59:05.354Z,22.87
2023-11-27T02:01:33.356Z,22.89
2023-11-27T02:04:00.713Z,22.90
2023-11-27T02:06:27.898Z,22.93
2023-11-27T02:08:55.264Z,22.89
2023-11-27T02:11:22.432Z,22.91
2023-11-27T02:13:50.924Z,22.89
2023-11-27T02:16:18.661Z,22.88
2023-11-27T02:18:46.112Z,22.82
2023-11-27T02:21:13.397Z,22.88
2023-11-27T02:23:41.910Z,22.88
2023-11-27T02:26:09.981Z,22.88
2023-11-27T02:28:37.182Z,22.84
2023-11-27T02:31:04.883Z,22.87
2023-11-27T02:33:32.086Z,22.85
2023-11-27T02:35:59.225Z,22.78
2023-11-27T02:38:26.383Z,22.70
2023-11-27T02:40:54.870Z,22.70
2023-11-27T02:43:22.010Z,22.71
2023-11-27T02:45:49.266Z,22.69
2023-11-27T02:48:16.419Z,22.72
2023-11-27T02:50:43.583Z,22.71
2023-11-27T02:53:10.743Z,22.76
2023-11-27T02:55:37.863Z,22.78
2023-11-27T02:58:06.446Z,22.78
2023-11-27T03:00:33.696Z,22.72
2023-11-27T03:03:00.869Z,22.75
2023-11-27T03:05:27.999Z,22.77
2023-11-27T03:07:55.363Z,22.76
2023-11-27T03:10:22.689Z,22.77
2023-11-27T03:12:49.980Z,22.75
2023-11-27T03:15:18.641Z,22.72
2023-11-27T03:17:45.787Z,22.73
2023-11-27T03:20:13.093Z,22.61
2023-11-27T03:22:40.656Z,22.65
2023-11-27T03:25:08.601Z,22.74
2023-11-27T03:27:35.766Z,22.95
2023-11-27T03:30:05.536Z,23.21
2023-11-27T03:32:34.578Z,23.47
2023-11-27T03:35:02.216Z,23.65
2023-11-27T03:37:29.383Z,23.80
2023-11-27T03:39:56.522Z,23.83
2023-11-27T03:42:23.656Z,23.92
2023-11-27T03:44:50.847Z,23.94
2023-11-27T03:47:17.965Z,23.97
2023-11-27T03:49:46.485Z,23.93
2023-11-27T03:52:13.715Z,23.94
2023-11-27T03:54:41.249Z,23.95
2023-11-27T03:57:08.411Z,23.91
2023-11-27T03:59:35.579Z,23.79
2023-11-27T04:02:02.938Z,23.74
2023-11-27T04:04:30.190Z,23.71
2023-11-27T04:06:58.736Z,23.69
2023-11-27T04:09:25.937Z,23.58
2023-11-27T04:11:53.124Z,23.57
2023-11-27T04:14:20.380Z,23.53
2023-11-27T04:16:47.632Z,23.52
2023-11-27T04:19:14.905Z,23.39
2023-11-27T04:21:42.132Z,23.46
2023-11-27T04:24:10.678Z,23.37
2023-11-27T04:26:37.806Z,23.34
2023-11-27T04:29:04.958Z,23.30
2023-11-27T04:31:32.204Z,23.27
2023-11-27T04:33:59.402Z,23.32
2023-11-27T04:36:26.576Z,23.30
2023-11-27T04:38:53.698Z,23.33
2023-11-27T04:41:22.240Z,23.34
2023-11-27T04:43:49.448Z,23.29
2023-11-27T04:46:16.665Z,23.23
2023-11-27T04:48:43.865Z,23.25
2023-11-27T04:51:11.056Z,23.25
2023-11-27T04:53:38.192Z,23.24
2023-11-27T04:56:06.151Z,23.24
2023-11-27T04:58:34.677Z,23.29
2023-11-27T05:01:02.637Z,23.21
2023-11-27T05:03:29.808Z,23.16
2023-11-27T05:05:56.985Z,23.12
2023-11-27T05:08:24.116Z,23.09
2023-11-27T05:10:51.265Z,23.06
2023-11-27T05:13:18.644Z,23.02
2023-11-27T05:15:47.247Z,22.97
2023-11-27T05:18:14.368Z,22.91
2023-11-27T05:20:41.676Z,22.87
2023-11-27T05:23:08.869Z,22.84
2023-11-27T05:25:36.060Z,22.83
2023-11-27T05:28:03.258Z,22.85
2023-11-27T05:30:30.445Z,22.86
2023-11-27T05:32:58.997Z,22.92
2023-11-27T05:35:26.203Z,22.96
2023-11-27T05:37:53.331Z,22.95
2023-11-27T05:40:20.493Z,22.98
2023-11-27T05:42:47.672Z,22.91
2023-11-27T05:45:14.841Z,22.94
2023-11-27T05:47:42.230Z,22.95
2023-11-27T05:50:11.981Z,22.91
2023-11-27T05:52:39.220Z,22.89
2023-11-27T05:55:07.325Z,22.91
2023-11-27T05:57:34.507Z,22.89
2023-11-27T06:00:02.010Z,22.84
2023-11-27T06:02:29.188Z,22.80
2023-11-27T06:04:56.376Z,22.88
2023-11-27T06:07:24.921Z,22.87
2023-11-27T06:09:52.206Z,22.81
2023-11-27T06:12:19.573Z,22.80
2023-11-27T06:14:46.718Z,22.70
2023-11-27T06:17:13.901Z,22.74
2023-11-27T06:19:41.251Z,22.74
2023-11-27T06:22:08.476Z,22.73
2023-11-27T06:24:36.996Z,22.75
2023-11-27T06:27:04.438Z,22.74
2023-11-27T06:29:31.565Z,22.78
2023-11-27T06:31:58.803Z,22.77
2023-11-27T06:34:26.029Z,22.81
2023-11-27T06:36:53.432Z,22.81
2023-11-27T06:39:21.867Z,22.79
2023-11-27T06:41:50.468Z,22.83
2023-11-27T06:44:17.652Z,22.80
2023-11-27T06:46:44.957Z,22.79
2023-11-27T06:49:12.397Z,22.73
2023-11-27T06:51:40.047Z,22.78
2023-11-27T06:54:07.205Z,22.76
2023-11-27T06:56:34.368Z,22.74
2023-11-27T06:59:02.901Z,22.72
2023-11-27T07:01:30.512Z,22.72
2023-11-27T07:04:01.304Z,22.68
2023-11-27T07:06:29.003Z,22.61
2023-11-27T07:08:56.253Z,22.62
2023-11-27T07:11:23.398Z,22.61
2023-11-27T07:13:50.526Z,22.58
2023-11-27T07:16:19.097Z,22.63
2023-11-27T07:18:46.455Z,22.63
2023-11-27T07:21:13.652Z,22.62
2023-11-27T07:23:40.766Z,22.63
2023-11-27T07:26:08.721Z,22.66
2023-11-27T07:28:35.955Z,22.69
2023-11-27T07:31:03.277Z,22.67
2023-11-27T07:33:31.906Z,22.68
2023-11-27T07:35:59.025Z,22.69
2023-11-27T07:38:26.194Z,22.67
2023-11-27T07:40:53.368Z,22.66
2023-11-27T07:43:20.510Z,22.66
2023-11-27T07:45:47.708Z,22.66
2023-11-27T07:48:14.933Z,22.64
2023-11-27T07:50:43.593Z,22.64
2023-11-27T07:53:10.760Z,22.63
2023-11-27T07:55:38.262Z,22.62
2023-11-27T07:58:05.510Z,22.58
2023-11-27T08:00:32.934Z,22.48
2023-11-27T08:03:00.227Z,22.52
2023-11-27T08:05:27.476Z,22.53
2023-11-27T08:07:56.008Z,22.50
2023-11-27T08:10:23.190Z,22.50
2023-11-27T08:12:50.469Z,22.50
2023-11-27T08:15:17.677Z,22.48
2023-11-27T08:17:45.127Z,22.50
2023-11-27T08:20:12.372Z,22.57
2023-11-27T08:22:39.502Z,22.59
2023-11-27T08:25:08.496Z,22.59
2023-11-27T08:27:37.257Z,22.47
2023-11-27T08:30:05.421Z,22.47
2023-11-27T08:32:32.635Z,22.59
2023-11-27T08:34:59.818Z,22.59
2023-11-27T08:37:27.633Z,22.50
2023-11-27T08:39:54.941Z,22.49
2023-11-27T08:42:23.511Z,22.53
2023-11-27T08:44:50.720Z,22.50
2023-11-27T08:47:17.914Z,22.53
2023-11-27T08:49:45.101Z,22.53
2023-11-27T08:52:12.283Z,22.51
2023-11-27T08:54:39.502Z,22.34
2023-11-27T08:57:06.629Z,22.48
2023-11-27T08:59:35.104Z,22.42
2023-11-27T09:02:02.391Z,22.41
2023-11-27T09:04:29.603Z,22.41
2023-11-27T09:06:56.832Z,22.41
2023-11-27T09:09:23.988Z,22.41
2023-11-27T09:11:51.135Z,22.32
2023-11-27T09:14:19.569Z,22.44
2023-11-27T09:16:48.130Z,22.50
2023-11-27T09:19:15.382Z,22.53
2023-11-27T09:21:42.501Z,22.54
2023-11-27T09:24:09.767Z,22.51
2023-11-27T09:26:37.081Z,22.52
2023-11-27T09:29:04.296Z,22.47
2023-11-27T09:31:31.659Z,22.49
2023-11-27T09:34:00.225Z,22.44
2023-11-27T09:36:27.398Z,22.48
2023-11-27T09:38:54.670Z,22.46
2023-11-27T09:41:21.824Z,22.44
2023-11-27T09:43:49.028Z,22.45
2023-11-27T09:46:19.664Z,22.43
2023-11-27T09:48:48.808Z,22.42
2023-11-27T09:51:18.759Z,22.36
2023-11-27T09:53:49.681Z,22.32
2023-11-27T09:56:17.393Z,22.33
2023-11-27T09:58:45.926Z,22.33
2023-11-27T10:01:13.808Z,22.34
2023-11-27T10:03:41.273Z,22.33
2023-11-27T10:06:08.546Z,22.32
2023-11-27T10:08:37.050Z,22.40
2023-11-27T10:11:04.485Z,22.44
2023-11-27T10:13:40.864Z,22.44
2023-11-27T10:16:21.538Z,22.40
2023-11-27T10:18:50.432Z,22.44
2023-11-27T10:21:17.612Z,22.41
2023-11-27T10:23:46.099Z,22.42
2023-11-27T10:26:13.255Z,22.39
2023-11-27T10:28:40.745Z,22.38
2023-11-27T10:31:08.348Z,22.36
2023-11-27T10:33:35.526Z,22.40
2023-11-27T10:36:03.082Z,22.36
2023-11-27T10:38:31.298Z,22.34
2023-11-27T10:41:02.381Z,22.32
2023-11-27T10:43:30.992Z,22.29
2023-11-27T10:45:58.610Z,22.31
2023-11-27T10:48:33.655Z,22.28
2023-11-27T10:51:11.700Z,22.20
2023-11-27T10:53:39.697Z,22.20
2023-11-27T10:56:10.366Z,22.26
2023-11-27T10:58:37.569Z,22.26
2023-11-27T11:01:05.408Z,22.27
2023-11-27T11:03:32.772Z,22.29
2023-11-27T11:06:03.138Z,22.34
2023-11-27T11:08:31.152Z,22.37
2023-11-27T11:10:59.957Z,22.38
2023-11-27T11:13:29.269Z,22.35
2023-11-27T11:16:02.417Z,22.37
2023-11-27T11:18:39.894Z,22.36
2023-11-27T11:21:27.884Z,22.33
2023-11-27T11:24:04.962Z,22.32
2023-11-27T11:26:47.765Z,22.29
2023-11-27T11:29:24.324Z,22.28
2023-11-27T11:32:00.197Z,22.29
2023-11-27T11:34:31.235Z,22.29
2023-11-27T11:36:58.432Z,22.30
2023-11-27T11:39:25.840Z,22.31
2023-11-27T11:42:00.069Z,22.21
2023-11-27T11:46:57.400Z,22.18
2023-11-27T11:49:25.707Z,22.20
2023-11-27T11:52:03.328Z,22.21
2023-11-27T11:54:35.631Z,22.14
2023-11-27T11:59:38.991Z,22.20
2023-11-27T12:02:11.831Z,22.25
2023-11-27T12:04:40.137Z,22.05
2023-11-27T12:07:08.774Z,22.25
2023-11-27T12:09:35.934Z,22.15
2023-11-27T12:12:03.209Z,22.25
2023-11-27T12:14:30.393Z,22.25
2023-11-27T12:16:57.617Z,22.27
2023-11-27T12:19:26.564Z,22.28
2023-11-27T12:21:53.980Z,22.25
2023-11-27T12:24:21.207Z,22.26
2023-11-27T12:26:51.137Z,22.23
2023-11-27T12:29:18.286Z,22.23
2023-11-27T12:34:16.066Z,22.20
2023-11-27T12:36:46.110Z,22.11
2023-11-27T12:39:17.342Z,22.07
2023-11-27T12:41:44.741Z,22.11
2023-11-27T12:44:14.093Z,22.06
2023-11-27T12:46:41.699Z,22.10
2023-11-27T12:49:08.858Z,22.12
2023-11-27T12:51:35.986Z,22.09
2023-11-27T12:54:05.928Z,22.07
2023-11-27T12:56:33.444Z,22.16
2023-11-27T12:59:00.594Z,22.14
2023-11-27T13:01:28.079Z,22.14
2023-11-27T13:03:55.537Z,22.20
2023-11-27T13:06:22.727Z,22.18
2023-11-27T13:08:51.554Z,22.15
2023-11-27T13:11:20.089Z,22.15
2023-11-27T13:13:47.281Z,22.12
2023-11-27T13:16:14.539Z,22.12
2023-11-27T13:18:41.683Z,22.12
2023-11-27T13:21:08.882Z,22.14
2023-11-27T13:23:36.036Z,22.14
2023-11-27T13:26:03.241Z,22.14
2023-11-27T13:28:31.727Z,22.12
2023-11-27T13:30:58.900Z,22.08
2023-11-27T13:33:26.079Z,22.01
2023-11-27T13:35:53.317Z,22.00
2023-11-27T13:38:20.455Z,22.02
2023-11-27T13:40:50.246Z,22.00
2023-11-27T13:43:18.561Z,21.99
2023-11-27T13:45:47.937Z,21.96
2023-11-27T13:48:15.170Z,22.01
2023-11-27T13:50:42.519Z,22.06
2023-11-27T13:53:10.582Z,22.10
2023-11-27T13:55:37.760Z,22.04
2023-11-27T13:58:05.018Z,22.08
2023-11-27T14:00:32.279Z,22.06
2023-11-27T14:03:01.109Z,22.06
2023-11-27T14:05:28.413Z,21.99
2023-11-27T14:07:55.743Z,22.02
2023-11-27T14:10:23.635Z,22.02
2023-11-27T14:12:51.615Z,22.03
2023-11-27T14:15:18.781Z,22.01
2023-11-27T14:17:46.018Z,22.01
2023-11-27T14:20:14.991Z,21.92
2023-11-27T14:22:42.212Z,22.00
2023-11-27T14:25:09.431Z,21.99
2023-11-27T14:27:36.561Z,21.91
2023-11-27T14:30:04.388Z,21.89
2023-11-27T14:32:31.504Z,21.93
2023-11-27T14:34:58.645Z,21.91
2023-11-27T14:37:27.180Z,21.91
2023-11-27T14:39:54.308Z,21.95
2023-11-27T14:42:21.990Z,21.94
2023-11-27T14:44:49.865Z,21.92
2023-11-27T14:47:17.395Z,21.95
2023-11-27T14:49:45.040Z,21.92
2023-11-27T14:52:12.683Z,21.99
2023-11-27T14:54:41.301Z,22.00
2023-11-27T14:57:08.586Z,21.96
2023-11-27T14:59:35.720Z,21.96
2023-11-27T15:02:03.671Z,21.95
2023-11-27T15:04:31.614Z,21.91
2023-11-27T15:06:58.784Z,21.94
2023-11-27T15:09:25.925Z,21.95
2023-11-27T15:11:54.453Z,21.85
2023-11-27T15:14:22.877Z,21.91
2023-11-27T15:16:51.502Z,21.92
2023-11-27T15:19:18.796Z,21.91
2023-11-27T15:21:46.622Z,21.83
2023-11-27T15:24:13.915Z,21.80
2023-11-27T15:26:41.682Z,21.81
2023-11-27T15:29:10.465Z,21.79
2023-11-27T15:31:37.642Z,21.81
2023-11-27T15:34:04.960Z,21.82
2023-11-27T15:36:32.102Z,21.86
2023-11-27T15:38:59.244Z,21.86
2023-11-27T15:41:26.427Z,21.87
2023-11-27T15:43:53.598Z,21.70
2023-11-27T15:46:22.156Z,21.92
2023-11-27T15:48:49.313Z,21.92
2023-11-27T15:51:16.478Z,21.87
2023-11-27T15:53:43.601Z,21.89
2023-11-27T15:56:11.741Z,21.87
2023-11-27T15:58:38.986Z,21.91
2023-11-27T16:01:06.462Z,21.87
2023-11-27T16:03:35.026Z,21.80
2023-11-27T16:06:02.203Z,21.84
2023-11-27T16:08:29.312Z,21.83
2023-11-27T16:10:56.925Z,21.81
2023-11-27T16:13:24.184Z,21.82
2023-11-27T16:15:51.401Z,21.79
2023-11-27T16:18:19.398Z,21.63
2023-11-27T16:20:48.117Z,21.72
2023-11-27T16:23:15.284Z,21.69
2023-11-27T16:25:42.464Z,21.72
2023-11-27T16:28:09.659Z,21.71
2023-11-27T16:30:36.841Z,21.82
2023-11-27T16:33:06.109Z,22.08
2023-11-27T16:35:35.678Z,22.47
2023-11-27T16:38:04.974Z,22.90
2023-11-27T16:40:32.104Z,23.24
2023-11-27T16:42:59.289Z,23.54
2023-11-27T16:45:26.573Z,23.73
2023-11-27T16:47:55.685Z,23.80
2023-11-27T16:50:23.453Z,23.81
2023-11-27T16:52:50.654Z,23.77
2023-11-27T16:55:19.791Z,23.75
2023-11-27T16:57:48.436Z,23.80
2023-11-27T17:00:16.356Z,23.65
2023-11-27T17:02:43.578Z,23.60
2023-11-27T17:05:10.906Z,23.57
2023-11-27T17:07:39.861Z,23.54
2023-11-27T17:10:07.696Z,23.44
2023-11-27T17:12:36.182Z,23.39
2023-11-27T17:15:03.619Z,23.36
2023-11-27T17:17:31.156Z,23.30
2023-11-27T17:19:58.447Z,23.25
2023-11-27T17:22:25.655Z,23.15
2023-11-27T17:24:52.798Z,23.08
2023-11-27T17:27:20.119Z,23.06
2023-11-27T17:29:48.624Z,23.00
2023-11-27T17:32:15.763Z,22.97
2023-11-27T17:34:42.930Z,22.98
2023-11-27T17:37:10.132Z,22.99
2023-11-27T17:39:37.529Z,23.05
2023-11-27T17:42:05.140Z,23.02
2023-11-27T17:44:32.257Z,22.96
2023-11-27T17:47:00.820Z,22.94
2023-11-27T17:49:28.030Z,22.88
2023-11-27T17:51:56.596Z,22.76
2023-11-27T17:54:23.715Z,22.83
2023-11-27T17:56:51.029Z,22.75
2023-11-27T17:59:18.208Z,22.77
2023-11-27T18:01:45.602Z,22.77
2023-11-27T18:04:14.255Z,22.69
2023-11-27T18:06:41.855Z,22.69
2023-11-27T18:09:09.129Z,22.58
2023-11-27T18:11:36.310Z,22.53
2023-11-27T18:14:03.700Z,22.49
2023-11-27T18:16:30.888Z,22.46
2023-11-27T18:18:58.123Z,22.49
2023-11-27T18:21:26.642Z,22.53
2023-11-27T18:23:53.784Z,22.49
2023-11-27T18:26:20.996Z,22.53
2023-11-27T18:28:48.169Z,22.74
2023-11-27T18:31:15.445Z,22.96
2023-11-27T18:33:42.734Z,23.18
2023-11-27T18:36:10.810Z,23.27
2023-11-27T18:38:39.667Z,23.36
2023-11-27T18:41:07.042Z,23.38
2023-11-27T18:43:34.207Z,23.43
2023-11-27T18:46:01.336Z,23.49
2023-11-27T18:48:28.684Z,23.56
2023-11-27T18:50:55.835Z,23.64
2023-11-27T18:53:22.959Z,23.52
2023-11-27T18:55:51.642Z,23.58
2023-11-27T18:58:18.865Z,23.81
2023-11-27T19:00:46.160Z,23.87
2023-11-27T19:03:15.609Z,23.89
2023-11-27T19:05:43.769Z,23.83
2023-11-27T19:08:10.950Z,23.76
2023-11-27T19:10:38.156Z,23.68
2023-11-27T19:13:06.688Z,23.60
2023-11-27T19:15:33.844Z,23.59
2023-11-27T19:18:01.055Z,23.53
2023-11-27T19:20:28.230Z,23.50
2023-11-27T19:22:55.415Z,23.51
2023-11-27T19:25:23.129Z,23.51
2023-11-27T19:27:50.324Z,23.54
2023-11-27T19:30:18.889Z,23.56
2023-11-27T19:32:46.096Z,23.62
2023-11-27T19:35:13.487Z,23.57
2023-11-27T19:37:40.708Z,23.57
2023-11-27T19:40:09.170Z,23.53
2023-11-27T19:42:36.312Z,23.56
2023-11-27T19:45:05.935Z,23.58
2023-11-27T19:47:34.922Z,23.54
2023-11-27T19:50:02.233Z,23.47
2023-11-27T19:52:29.400Z,23.41
2023-11-27T19:54:56.574Z,23.42
2023-11-27T19:57:23.726Z,23.45
2023-11-27T19:59:53.642Z,23.47
2023-11-27T20:02:22.227Z,23.39
2023-11-27T20:04:50.939Z,23.34
2023-11-27T20:07:18.201Z,23.28
2023-11-27T20:09:45.416Z,23.27
2023-11-27T20:12:12.562Z,23.23
2023-11-27T20:14:39.740Z,23.27
2023-11-27T20:17:07.020Z,23.25
2023-11-27T20:19:34.254Z,23.31
2023-11-27T20:22:02.784Z,23.33
2023-11-27T20:24:29.979Z,23.31
2023-11-27T20:26:57.113Z,23.33
2023-11-27T20:29:24.512Z,23.38
2023-11-27T20:31:51.772Z,23.39
2023-11-27T20:34:18.975Z,23.38
2023-11-27T20:36:46.128Z,23.43
2023-11-27T20:39:14.642Z,23.43
2023-11-27T20:41:41.819Z,23.46
2023-11-27T20:44:08.992Z,23.39
2023-11-27T20:46:36.450Z,23.35
2023-11-27T20:49:03.754Z,23.45
2023-11-27T20:51:31.377Z,23.45
2023-11-27T20:53:58.614Z,23.44
2023-11-27T20:56:27.271Z,23.34
2023-11-27T20:58:54.612Z,23.27
2023-11-27T21:01:22.280Z,23.31
2023-11-27T21:03:49.506Z,23.33
2023-11-27T21:06:16.681Z,23.33
2023-11-27T21:08:43.919Z,23.31
2023-11-27T21:11:11.062Z,23.29
2023-11-27T21:13:39.676Z,23.33
2023-11-27T21:16:07.981Z,23.31
2023-11-27T21:18:35.230Z,23.30
2023-11-27T21:21:02.380Z,23.37
2023-11-27T21:23:29.529Z,23.38
2023-11-27T21:25:56.726Z,23.38
2023-11-27T21:28:23.891Z,23.40
2023-11-27T21:30:52.495Z,23.43
2023-11-27T21:33:19.715Z,23.38
2023-11-27T21:35:46.895Z,23.42
2023-11-27T21:38:14.172Z,23.41
2023-11-27T21:40:41.905Z,23.43
2023-11-27T21:43:09.105Z,23.46
2023-11-27T21:45:36.324Z,23.53
2023-11-27T21:48:05.452Z,23.50
2023-11-27T21:50:32.656Z,23.33
2023-11-27T21:53:00.032Z,23.30
2023-11-27T21:55:27.187Z,23.16
2023-11-27T21:57:54.317Z,23.07
2023-11-27T22:00:21.758Z,23.03
2023-11-27T22:02:49.056Z,23.02
2023-11-27T22:05:17.675Z,23.10
2023-11-27T22:07:44.951Z,23.16
2023-11-27T22:10:12.097Z,23.15
2023-11-27T22:12:39.961Z,23.15
2023-11-27T22:15:07.861Z,23.14
2023-11-27T22:17:34.997Z,23.10
2023-11-27T22:20:02.162Z,23.05
2023-11-27T22:22:30.685Z,23.06
2023-11-27T22:24:57.819Z,22.96
2023-11-27T22:27:24.948Z,22.96
2023-11-27T22:29:52.117Z,22.99
2023-11-27T22:32:19.301Z,22.94
2023-11-27T22:34:46.499Z,22.92
2023-11-27T22:37:14.638Z,22.91
2023-11-27T22:39:43.130Z,22.93
2023-11-27T22:42:10.296Z,22.92
2023-11-27T22:44:37.454Z,22.90
2023-11-27T22:47:05.175Z,22.80
2023-11-27T22:49:32.447Z,22.79
2023-11-27T22:51:59.610Z,22.83
2023-11-27T22:54:26.752Z,22.81
2023-11-27T22:56:55.268Z,22.83
2023-11-27T22:59:22.624Z,22.80
2023-11-27T23:01:50.022Z,22.86
2023-11-27T23:04:17.272Z,22.88
2023-11-27T23:06:44.523Z,22.86
2023-11-27T23:09:11.657Z,22.87
2023-11-27T23:11:44.462Z,22.86
2023-11-27T23:14:13.024Z,22.83
2023-11-27T23:16:40.393Z,22.83
2023-11-27T23:19:07.715Z,22.79
2023-11-27T23:21:34.917Z,22.79
2023-11-27T23:24:04.865Z,22.79
2023-11-27T23:26:35.929Z,22.72
2023-11-27T23:29:03.129Z,22.79
2023-11-27T23:31:31.707Z,22.76
2023-11-27T23:33:59.102Z,22.74
2023-11-27T23:36:26.251Z,22.76
2023-11-27T23:38:53.558Z,22.58
2023-11-27T23:41:20.772Z,22.66
2023-11-27T23:43:50.887Z,22.63
2023-11-27T23:46:18.161Z,22.68
2023-11-27T23:48:46.693Z,22.68
2023-11-27T23:51:13.989Z,22.56
2023-11-27T23:53:42.452Z,22.66
2023-11-27T23:56:10.194Z,22.68
2023-11-27T23:58:37.379Z,22.69
